createdAt,value
2017-06-26T00:00:18.658Z,0
2017-06-26T00:01:19.237Z,0
2017-06-26T00:02:19.818Z,0
2017-06-26T00:03:20.396Z,0
2017-06-26T00:04:20.977Z,0
2017-06-26T00:05:21.555Z,0
2017-06-26T00:06:22.134Z,0
2017-06-26T00:07:22.714Z,0
2017-06-26T00:08:23.310Z,0
2017-06-26T00:09:23.886Z,0
2017-06-26T00:10:24.465Z,0
2017-06-26T00:11:25.043Z,0
2017-06-26T00:12:25.622Z,0
2017-06-26T00:13:26.202Z,0
2017-06-26T00:14:26.781Z,0
2017-06-26T00:15:27.610Z,0
2017-06-26T00:16:28.188Z,0
2017-06-26T00:17:28.765Z,0
2017-06-26T00:18:29.343Z,0
2017-06-26T00:19:29.921Z,0
2017-06-26T00:20:30.502Z,0
2017-06-26T00:21:31.080Z,0
2017-06-26T00:22:31.658Z,0
2017-06-26T00:23:32.237Z,0
2017-06-26T00:24:32.830Z,0
2017-06-26T00:25:33.409Z,0
2017-06-26T00:26:33.987Z,0
2017-06-26T00:27:34.564Z,0
2017-06-26T00:28:35.144Z,0
2017-06-26T00:29:35.724Z,0
2017-06-26T00:30:36.305Z,0
2017-06-26T00:31:36.883Z,0
2017-06-26T00:32:37.461Z,0
2017-06-26T00:33:38.041Z,0
2017-06-26T00:34:38.620Z,0
2017-06-26T00:35:39.200Z,0
2017-06-26T00:36:39.778Z,0
2017-06-26T00:37:40.355Z,0
2017-06-26T00:38:40.934Z,0
2017-06-26T00:39:41.513Z,0
2017-06-26T00:40:42.092Z,0
2017-06-26T00:41:42.670Z,0
2017-06-26T00:42:43.249Z,0
2017-06-26T00:43:43.848Z,0
2017-06-26T00:44:44.405Z,0
2017-06-26T00:45:44.986Z,0
2017-06-26T00:46:45.579Z,0
2017-06-26T00:47:46.160Z,0
2017-06-26T00:48:46.736Z,0
2017-06-26T00:49:47.314Z,0
2017-06-26T00:50:47.892Z,0
2017-06-26T00:51:48.469Z,0
2017-06-26T00:52:49.048Z,0
2017-06-26T00:53:49.628Z,0
2017-06-26T00:54:50.207Z,0
2017-06-26T00:55:50.786Z,0
2017-06-26T00:56:51.363Z,0
2017-06-26T00:57:51.941Z,0
2017-06-26T00:58:52.521Z,0
2017-06-26T00:59:53.101Z,0
2017-06-26T01:00:53.680Z,0
2017-06-26T01:01:54.259Z,0
2017-06-26T01:02:54.850Z,0
2017-06-26T01:03:55.428Z,0
2017-06-26T01:04:56.008Z,0
2017-06-26T01:05:56.584Z,0
2017-06-26T01:06:57.162Z,0
2017-06-26T01:07:57.743Z,0
2017-06-26T01:08:58.321Z,0
2017-06-26T01:09:58.899Z,0
2017-06-26T01:10:59.477Z,0
2017-06-26T01:12:00.057Z,0
2017-06-26T01:13:00.636Z,0
2017-06-26T01:14:01.215Z,0
2017-06-26T01:15:01.794Z,0
2017-06-26T01:16:02.370Z,0
2017-06-26T01:17:02.947Z,0
2017-06-26T01:18:03.527Z,0
2017-06-26T01:19:04.104Z,0
2017-06-26T01:20:04.682Z,0
2017-06-26T01:21:05.261Z,0
2017-06-26T01:22:05.839Z,0
2017-06-26T01:23:06.417Z,0
2017-06-26T01:24:07.010Z,0
2017-06-26T01:25:07.589Z,0
2017-06-26T01:26:08.168Z,0
2017-06-26T01:27:08.748Z,0
2017-06-26T01:28:09.326Z,0
2017-06-26T01:29:09.906Z,0
2017-06-26T01:30:10.483Z,0
2017-06-26T01:31:11.062Z,0
2017-06-26T01:32:11.643Z,0
2017-06-26T01:33:12.220Z,0
2017-06-26T01:34:12.798Z,0
2017-06-26T01:35:13.377Z,0
2017-06-26T01:36:13.954Z,0
2017-06-26T01:37:14.534Z,0
2017-06-26T01:38:15.130Z,0
2017-06-26T01:39:15.708Z,0
2017-06-26T01:40:16.288Z,0
2017-06-26T01:41:16.867Z,0
2017-06-26T01:42:17.444Z,0
2017-06-26T01:43:18.021Z,0
2017-06-26T01:44:18.600Z,0
2017-06-26T01:45:19.195Z,0
2017-06-26T01:46:19.773Z,0
2017-06-26T01:47:20.352Z,0
2017-06-26T01:48:20.931Z,0
2017-06-26T01:49:21.508Z,0
2017-06-26T01:50:22.086Z,0
2017-06-26T01:51:22.665Z,0
2017-06-26T01:52:23.244Z,0
2017-06-26T01:53:23.822Z,0
2017-06-26T01:54:24.399Z,0
2017-06-26T01:55:24.982Z,0
2017-06-26T01:56:25.557Z,0
2017-06-26T01:57:26.135Z,0
2017-06-26T01:58:26.728Z,0
2017-06-26T01:59:27.312Z,0
2017-06-26T02:00:27.887Z,0
2017-06-26T02:01:28.468Z,0
2017-06-26T02:02:29.046Z,0
2017-06-26T02:03:29.624Z,0
2017-06-26T02:04:30.203Z,0
2017-06-26T02:05:30.783Z,0
2017-06-26T02:06:31.363Z,0
2017-06-26T02:07:31.942Z,0
2017-06-26T02:08:32.536Z,0
2017-06-26T02:09:33.114Z,0
2017-06-26T02:10:33.693Z,0
2017-06-26T02:11:34.273Z,0
2017-06-26T02:12:34.853Z,0
2017-06-26T02:13:35.447Z,0
2017-06-26T02:14:36.025Z,0
2017-06-26T02:15:36.619Z,0
2017-06-26T02:16:37.201Z,0
2017-06-26T02:17:37.777Z,0
2017-06-26T02:18:38.370Z,0
2017-06-26T02:19:38.947Z,0
2017-06-26T02:20:39.526Z,0
2017-06-26T02:21:40.105Z,0
2017-06-26T02:22:40.684Z,0
2017-06-26T02:23:41.262Z,0
2017-06-26T02:24:41.841Z,0
2017-06-26T02:25:42.420Z,0
2017-06-26T02:26:42.999Z,0
2017-06-26T02:27:43.578Z,0
2017-06-26T02:28:44.155Z,0
2017-06-26T02:29:44.734Z,0
2017-06-26T02:30:45.313Z,0
2017-06-26T02:31:45.890Z,0
2017-06-26T02:32:46.471Z,0
2017-06-26T02:33:47.050Z,0
2017-06-26T02:34:47.630Z,0
2017-06-26T02:35:48.209Z,0
2017-06-26T02:36:48.786Z,0
2017-06-26T02:37:49.366Z,0
2017-06-26T02:38:49.945Z,0
2017-06-26T02:39:50.525Z,0
2017-06-26T02:40:51.103Z,0
2017-06-26T02:41:51.680Z,0
2017-06-26T02:42:52.272Z,0
2017-06-26T02:43:52.851Z,0
2017-06-26T02:44:53.429Z,0
2017-06-26T02:45:54.009Z,0
2017-06-26T02:46:54.587Z,0
2017-06-26T02:47:55.166Z,0
2017-06-26T02:48:55.745Z,0
2017-06-26T02:49:56.323Z,0
2017-06-26T02:50:56.905Z,0
2017-06-26T02:51:57.482Z,0
2017-06-26T02:52:58.062Z,0
2017-06-26T02:53:58.639Z,0
2017-06-26T02:54:59.217Z,0
2017-06-26T02:55:59.796Z,0
2017-06-26T02:57:00.375Z,0
2017-06-26T02:58:00.955Z,0
2017-06-26T02:59:01.532Z,0
2017-06-26T03:00:02.127Z,0
2017-06-26T03:01:02.704Z,0
2017-06-26T03:02:03.282Z,0
2017-06-26T03:03:03.861Z,0
2017-06-26T03:04:04.441Z,0
2017-06-26T03:05:05.035Z,0
2017-06-26T03:06:05.613Z,0
2017-06-26T03:07:06.207Z,0
2017-06-26T03:08:06.788Z,0
2017-06-26T03:09:07.365Z,0
2017-06-26T03:10:07.942Z,0
2017-06-26T03:11:08.522Z,0
2017-06-26T03:12:09.101Z,0
2017-06-26T03:13:09.694Z,0
2017-06-26T03:14:10.273Z,0
2017-06-26T03:15:10.850Z,0
2017-06-26T03:16:11.427Z,0
2017-06-26T03:17:12.005Z,0
2017-06-26T03:18:12.583Z,0
2017-06-26T03:19:13.162Z,0
2017-06-26T03:20:13.740Z,0
2017-06-26T03:21:14.319Z,0
2017-06-26T03:22:14.898Z,0
2017-06-26T03:23:15.475Z,0
2017-06-26T03:24:16.055Z,0
2017-06-26T03:25:16.633Z,0
2017-06-26T03:26:17.213Z,0
2017-06-26T03:27:17.791Z,0
2017-06-26T03:28:18.367Z,0
2017-06-26T03:29:18.947Z,0
2017-06-26T03:30:19.526Z,0
2017-06-26T03:31:20.104Z,0
2017-06-26T03:32:20.681Z,0
2017-06-26T03:33:21.258Z,0
2017-06-26T03:34:21.835Z,0
2017-06-26T03:35:22.413Z,0
2017-06-26T03:36:22.993Z,0
2017-06-26T03:37:23.570Z,0
2017-06-26T03:38:24.150Z,0
2017-06-26T03:39:24.729Z,0
2017-06-26T03:40:25.308Z,0
2017-06-26T03:41:25.889Z,0
2017-06-26T03:42:26.468Z,0
2017-06-26T03:43:27.048Z,0
2017-06-26T03:44:27.626Z,0
2017-06-26T03:45:28.206Z,0
2017-06-26T03:46:28.787Z,0
2017-06-26T03:47:29.366Z,0
2017-06-26T03:48:29.946Z,0
2017-06-26T03:49:30.527Z,0
2017-06-26T03:50:31.105Z,0
2017-06-26T03:51:31.684Z,0
2017-06-26T03:52:32.262Z,0
2017-06-26T03:53:32.842Z,0
2017-06-26T03:54:33.423Z,0
2017-06-26T03:55:34.029Z,0
2017-06-26T03:56:34.609Z,0
2017-06-26T03:57:35.189Z,0
2017-06-26T03:58:35.771Z,0
2017-06-26T03:59:36.366Z,0
2017-06-26T04:00:36.945Z,0
2017-06-26T04:01:37.524Z,0
2017-06-26T04:02:38.104Z,0
2017-06-26T04:03:38.684Z,0
2017-06-26T04:04:39.263Z,0
2017-06-26T04:05:39.842Z,0
2017-06-26T04:06:40.422Z,0
2017-06-26T04:07:41.003Z,0
2017-06-26T04:08:41.582Z,0
2017-06-26T04:09:42.161Z,0
2017-06-26T04:10:42.743Z,0
2017-06-26T04:11:43.337Z,0
2017-06-26T04:12:43.916Z,0
2017-06-26T04:13:44.496Z,0
2017-06-26T04:14:45.074Z,0
2017-06-26T04:15:45.653Z,0
2017-06-26T04:16:46.232Z,0
2017-06-26T04:17:46.827Z,0
2017-06-26T04:18:47.407Z,0
2017-06-26T04:19:47.988Z,0
2017-06-26T04:20:48.566Z,0
2017-06-26T04:21:49.145Z,0
2017-06-26T04:22:49.725Z,0
2017-06-26T04:23:50.305Z,0
2017-06-26T04:24:50.885Z,0
2017-06-26T04:25:51.465Z,0
2017-06-26T04:26:52.043Z,0
2017-06-26T04:27:52.625Z,5
2017-06-26T04:28:53.205Z,5
2017-06-26T04:29:53.785Z,5
2017-06-26T04:30:54.365Z,5
2017-06-26T04:31:54.950Z,5
2017-06-26T04:32:55.528Z,5
2017-06-26T04:33:56.108Z,5
2017-06-26T04:34:56.691Z,5
2017-06-26T04:35:57.271Z,5
2017-06-26T04:36:57.853Z,5
2017-06-26T04:37:58.497Z,5
2017-06-26T04:38:59.078Z,5
2017-06-26T04:39:59.659Z,5
2017-06-26T04:41:00.239Z,5
2017-06-26T04:42:00.820Z,5
2017-06-26T04:43:01.403Z,5
2017-06-26T04:44:01.983Z,5
2017-06-26T04:45:02.563Z,5
2017-06-26T04:46:03.145Z,5
2017-06-26T04:47:03.726Z,5
2017-06-26T04:48:04.306Z,5
2017-06-26T04:49:04.888Z,5
2017-06-26T04:50:05.468Z,5
2017-06-26T04:51:06.065Z,5
2017-06-26T04:52:06.661Z,5
2017-06-26T04:53:07.242Z,5
2017-06-26T04:54:07.821Z,5
2017-06-26T04:55:08.404Z,5
2017-06-26T04:56:08.986Z,5
2017-06-26T04:57:09.566Z,5
2017-06-26T04:58:10.146Z,5
2017-06-26T04:59:10.730Z,10
2017-06-26T05:00:11.311Z,10
2017-06-26T05:01:11.894Z,10
2017-06-26T05:02:12.477Z,15
2017-06-26T05:03:13.058Z,15
2017-06-26T05:04:13.641Z,15
2017-06-26T05:05:14.224Z,15
2017-06-26T05:06:14.806Z,15
2017-06-26T05:07:15.403Z,15
2017-06-26T05:08:15.986Z,15
2017-06-26T05:09:16.568Z,15
2017-06-26T05:10:17.149Z,15
2017-06-26T05:11:17.732Z,15
2017-06-26T05:12:18.315Z,15
2017-06-26T05:13:18.896Z,15
2017-06-26T05:14:19.479Z,15
2017-06-26T05:15:20.061Z,15
2017-06-26T05:16:20.642Z,15
2017-06-26T05:17:21.225Z,15
2017-06-26T05:18:21.809Z,15
2017-06-26T05:19:22.389Z,15
2017-06-26T05:20:22.986Z,20
2017-06-26T05:21:23.569Z,15
2017-06-26T05:22:24.155Z,15
2017-06-26T05:23:24.734Z,15
2017-06-26T05:24:25.316Z,15
2017-06-26T05:25:25.899Z,15
2017-06-26T05:26:26.495Z,15
2017-06-26T05:27:27.091Z,15
2017-06-26T05:28:27.671Z,15
2017-06-26T05:29:28.254Z,15
2017-06-26T05:30:28.838Z,15
2017-06-26T05:31:29.419Z,15
2017-06-26T05:32:30.002Z,15
2017-06-26T05:33:30.585Z,25
2017-06-26T05:34:31.167Z,20
2017-06-26T05:35:31.764Z,15
2017-06-26T05:36:32.362Z,15
2017-06-26T05:37:32.944Z,15
2017-06-26T05:38:33.527Z,15
2017-06-26T05:39:34.124Z,15
2017-06-26T05:40:34.706Z,10
2017-06-26T05:41:35.289Z,10
2017-06-26T05:42:35.871Z,10
2017-06-26T05:43:36.452Z,10
2017-06-26T05:44:37.035Z,15
2017-06-26T05:45:37.619Z,15
2017-06-26T05:46:38.201Z,15
2017-06-26T05:47:38.783Z,15
2017-06-26T05:48:39.381Z,10
2017-06-26T05:49:39.965Z,10
2017-06-26T05:50:40.545Z,15
2017-06-26T05:51:41.129Z,15
2017-06-26T05:52:41.714Z,15
2017-06-26T05:53:42.293Z,15
2017-06-26T05:54:42.877Z,15
2017-06-26T05:55:43.474Z,15
2017-06-26T05:56:44.058Z,15
2017-06-26T05:57:44.639Z,15
2017-06-26T05:58:45.221Z,15
2017-06-26T05:59:45.804Z,15
2017-06-26T06:00:46.387Z,20
2017-06-26T06:01:46.984Z,15
2017-06-26T06:02:47.565Z,15
2017-06-26T06:03:48.148Z,15
2017-06-26T06:04:48.730Z,15
2017-06-26T06:05:49.312Z,10
2017-06-26T06:06:49.895Z,10
2017-06-26T06:07:50.477Z,10
2017-06-26T06:08:51.059Z,15
2017-06-26T06:09:51.641Z,15
2017-06-26T06:10:52.224Z,15
2017-06-26T06:11:52.806Z,20
2017-06-26T06:12:53.404Z,20
2017-06-26T06:13:53.986Z,20
2017-06-26T06:14:54.567Z,20
2017-06-26T06:15:55.151Z,20
2017-06-26T06:16:55.734Z,20
2017-06-26T06:17:56.330Z,20
2017-06-26T06:18:56.911Z,20
2017-06-26T06:19:57.493Z,20
2017-06-26T06:20:58.077Z,20
2017-06-26T06:21:58.658Z,20
2017-06-26T06:22:59.242Z,25
2017-06-26T06:23:59.824Z,40
2017-06-26T06:25:00.406Z,30
2017-06-26T06:26:00.988Z,25
2017-06-26T06:27:01.572Z,20
2017-06-26T06:28:02.158Z,20
2017-06-26T06:29:02.736Z,20
2017-06-26T06:30:03.320Z,20
2017-06-26T06:31:03.901Z,20
2017-06-26T06:32:04.484Z,20
2017-06-26T06:33:05.068Z,20
2017-06-26T06:34:05.649Z,15
2017-06-26T06:35:06.249Z,20
2017-06-26T06:36:06.831Z,15
2017-06-26T06:37:07.414Z,15
2017-06-26T06:38:07.995Z,15
2017-06-26T06:39:08.586Z,15
2017-06-26T06:40:09.161Z,15
2017-06-26T06:41:09.744Z,15
2017-06-26T06:42:10.326Z,20
2017-06-26T06:43:10.909Z,20
2017-06-26T06:44:11.489Z,20
2017-06-26T06:45:12.072Z,20
2017-06-26T06:46:12.658Z,20
2017-06-26T06:47:13.238Z,20
2017-06-26T06:48:13.837Z,20
2017-06-26T06:49:14.422Z,20
2017-06-26T06:50:15.003Z,20
2017-06-26T06:51:15.584Z,20
2017-06-26T06:52:16.168Z,20
2017-06-26T06:53:16.751Z,20
2017-06-26T06:54:17.334Z,20
2017-06-26T06:55:17.917Z,20
2017-06-26T06:56:18.500Z,20
2017-06-26T06:57:19.085Z,20
2017-06-26T06:58:19.668Z,20
2017-06-26T06:59:20.248Z,20
2017-06-26T07:00:20.832Z,20
2017-06-26T07:01:21.414Z,20
2017-06-26T07:02:21.995Z,20
2017-06-26T07:03:22.578Z,20
2017-06-26T07:04:23.161Z,20
2017-06-26T07:05:23.743Z,20
2017-06-26T07:06:24.325Z,20
2017-06-26T07:07:24.907Z,20
2017-06-26T07:08:25.506Z,25
2017-06-26T07:09:26.089Z,35
2017-06-26T07:10:26.673Z,25
2017-06-26T07:11:27.254Z,25
2017-06-26T07:12:27.836Z,30
2017-06-26T07:13:28.420Z,30
2017-06-26T07:14:29.001Z,30
2017-06-26T07:15:29.583Z,30
2017-06-26T07:16:30.181Z,30
2017-06-26T07:17:30.765Z,25
2017-06-26T07:18:31.347Z,25
2017-06-26T07:19:31.928Z,25
2017-06-26T07:20:32.525Z,25
2017-06-26T07:21:33.109Z,25
2017-06-26T07:22:33.692Z,25
2017-06-26T07:23:34.274Z,25
2017-06-26T07:24:34.857Z,30
2017-06-26T07:25:35.438Z,30
2017-06-26T07:26:36.021Z,30
2017-06-26T07:27:36.618Z,30
2017-06-26T07:28:37.201Z,35
2017-06-26T07:29:37.782Z,35
2017-06-26T07:30:38.365Z,40
2017-06-26T07:31:38.948Z,30
2017-06-26T07:32:39.530Z,35
2017-06-26T07:33:40.113Z,30
2017-06-26T07:34:40.710Z,30
2017-06-26T07:35:41.291Z,30
2017-06-26T07:36:41.875Z,35
2017-06-26T07:37:42.457Z,35
2017-06-26T07:38:43.039Z,30
2017-06-26T07:39:43.622Z,25
2017-06-26T07:40:44.205Z,25
2017-06-26T07:41:44.788Z,25
2017-06-26T07:42:45.370Z,25
2017-06-26T07:43:45.954Z,30
2017-06-26T07:44:46.537Z,25
2017-06-26T07:45:47.136Z,25
2017-06-26T07:46:47.718Z,25
2017-06-26T07:47:48.301Z,30
2017-06-26T07:48:48.883Z,25
2017-06-26T07:49:49.466Z,30
2017-06-26T07:50:50.049Z,25
2017-06-26T07:51:50.631Z,25
2017-06-26T07:52:51.214Z,25
2017-06-26T07:53:51.812Z,25
2017-06-26T07:54:52.395Z,25
2017-06-26T07:55:52.980Z,25
2017-06-26T07:56:53.561Z,25
2017-06-26T07:57:54.143Z,25
2017-06-26T07:58:54.726Z,30
2017-06-26T07:59:55.308Z,30
2017-06-26T08:00:55.891Z,30
2017-06-26T08:01:56.473Z,30
2017-06-26T08:02:57.055Z,30
2017-06-26T08:03:57.638Z,35
2017-06-26T08:04:58.220Z,35
2017-06-26T08:05:58.804Z,50
2017-06-26T08:06:59.387Z,40
2017-06-26T08:07:59.969Z,35
2017-06-26T08:09:00.553Z,40
2017-06-26T08:10:01.141Z,35
2017-06-26T08:11:01.718Z,30
2017-06-26T08:12:02.316Z,35
2017-06-26T08:13:02.898Z,35
2017-06-26T08:14:03.482Z,35
2017-06-26T08:15:04.064Z,35
2017-06-26T08:16:04.647Z,35
2017-06-26T08:17:05.230Z,30
2017-06-26T08:18:05.812Z,25
2017-06-26T08:19:06.395Z,30
2017-06-26T08:20:06.978Z,30
2017-06-26T08:21:07.561Z,25
2017-06-26T08:22:08.160Z,30
2017-06-26T08:23:08.747Z,45
2017-06-26T08:24:09.326Z,40
2017-06-26T08:25:09.909Z,30
2017-06-26T08:26:10.491Z,20
2017-06-26T08:27:11.074Z,35
2017-06-26T08:28:11.657Z,35
2017-06-26T08:29:12.240Z,40
2017-06-26T08:30:12.823Z,40
2017-06-26T08:31:13.405Z,40
2017-06-26T08:32:13.989Z,40
2017-06-26T08:33:14.572Z,40
2017-06-26T08:34:15.154Z,40
2017-06-26T08:35:15.738Z,40
2017-06-26T08:36:16.324Z,45
2017-06-26T08:37:16.905Z,45
2017-06-26T08:38:17.490Z,45
2017-06-26T08:39:18.074Z,45
2017-06-26T08:40:18.658Z,40
2017-06-26T08:41:19.239Z,50
2017-06-26T08:42:19.822Z,45
2017-06-26T08:43:20.405Z,30
2017-06-26T08:44:20.988Z,50
2017-06-26T08:45:21.572Z,50
2017-06-26T08:46:22.155Z,50
2017-06-26T08:47:22.738Z,50
2017-06-26T08:48:23.321Z,25
2017-06-26T08:49:23.903Z,45
2017-06-26T08:50:24.485Z,30
2017-06-26T08:51:25.069Z,25
2017-06-26T08:52:25.650Z,40
2017-06-26T08:53:26.233Z,35
2017-06-26T08:54:26.817Z,35
2017-06-26T08:55:27.400Z,35
2017-06-26T08:56:27.983Z,35
2017-06-26T08:57:28.579Z,40
2017-06-26T08:58:29.164Z,40
2017-06-26T08:59:29.750Z,40
2017-06-26T09:00:30.349Z,40
2017-06-26T09:01:30.947Z,40
2017-06-26T09:02:31.531Z,40
2017-06-26T09:03:32.115Z,40
2017-06-26T09:04:32.697Z,40
2017-06-26T09:05:33.281Z,40
2017-06-26T09:06:33.864Z,40
2017-06-26T09:07:34.448Z,40
2017-06-26T09:08:35.046Z,40
2017-06-26T09:09:35.630Z,40
2017-06-26T09:10:36.214Z,35
2017-06-26T09:11:36.798Z,45
2017-06-26T09:12:37.381Z,25
2017-06-26T09:13:37.967Z,45
2017-06-26T09:14:38.555Z,50
2017-06-26T09:15:39.135Z,50
2017-06-26T09:16:39.718Z,35
2017-06-26T09:17:40.306Z,50
2017-06-26T09:18:40.886Z,25
2017-06-26T09:19:41.469Z,20
2017-06-26T09:20:42.055Z,45
2017-06-26T09:21:42.639Z,45
2017-06-26T09:22:43.222Z,45
2017-06-26T09:23:43.807Z,45
2017-06-26T09:24:44.394Z,45
2017-06-26T09:25:44.975Z,45
2017-06-26T09:26:45.560Z,50
2017-06-26T09:27:46.142Z,30
2017-06-26T09:28:46.725Z,30
2017-06-26T09:29:47.313Z,20
2017-06-26T09:30:47.910Z,20
2017-06-26T09:31:48.509Z,15
2017-06-26T09:32:49.091Z,15
2017-06-26T09:33:49.675Z,35
2017-06-26T09:34:50.260Z,35
2017-06-26T09:35:50.859Z,35
2017-06-26T09:36:51.442Z,40
2017-06-26T09:37:52.026Z,40
2017-06-26T09:38:52.610Z,40
2017-06-26T09:39:53.193Z,40
2017-06-26T09:40:53.777Z,40
2017-06-26T09:41:54.361Z,40
2017-06-26T09:42:54.944Z,40
2017-06-26T09:43:55.527Z,40
2017-06-26T09:44:56.112Z,40
2017-06-26T09:45:56.694Z,40
2017-06-26T09:46:57.279Z,40
2017-06-26T09:47:57.864Z,40
2017-06-26T09:48:58.448Z,40
2017-06-26T09:49:59.044Z,40
2017-06-26T09:50:59.627Z,40
2017-06-26T09:52:00.214Z,40
2017-06-26T09:53:00.794Z,40
2017-06-26T09:54:01.377Z,40
2017-06-26T09:55:01.963Z,40
2017-06-26T09:56:02.545Z,40
2017-06-26T09:57:03.129Z,40
2017-06-26T09:58:03.713Z,40
2017-06-26T09:59:04.295Z,40
2017-06-26T10:00:04.880Z,40
2017-06-26T10:01:05.465Z,40
2017-06-26T10:02:06.048Z,40
2017-06-26T10:03:06.631Z,40
2017-06-26T10:04:07.216Z,40
2017-06-26T10:05:07.799Z,40
2017-06-26T10:06:08.382Z,45
2017-06-26T10:07:08.968Z,45
2017-06-26T10:08:09.551Z,25
2017-06-26T10:09:10.136Z,25
2017-06-26T10:10:10.719Z,40
2017-06-26T10:11:11.303Z,45
2017-06-26T10:12:11.887Z,45
2017-06-26T10:13:12.471Z,45
2017-06-26T10:14:13.053Z,45
2017-06-26T10:15:13.638Z,45
2017-06-26T10:16:14.223Z,25
2017-06-26T10:17:14.806Z,20
2017-06-26T10:18:15.394Z,50
2017-06-26T10:19:15.979Z,50
2017-06-26T10:20:16.565Z,50
2017-06-26T10:21:17.148Z,50
2017-06-26T10:22:17.731Z,50
2017-06-26T10:23:18.318Z,55
2017-06-26T10:24:18.901Z,30
2017-06-26T10:25:19.504Z,30
2017-06-26T10:26:20.085Z,35
2017-06-26T10:27:20.669Z,30
2017-06-26T10:28:21.254Z,55
2017-06-26T10:29:21.838Z,55
2017-06-26T10:30:22.424Z,55
2017-06-26T10:31:23.008Z,35
2017-06-26T10:32:23.594Z,30
2017-06-26T10:33:24.178Z,30
2017-06-26T10:34:24.761Z,30
2017-06-26T10:35:25.346Z,30
2017-06-26T10:36:25.946Z,30
2017-06-26T10:37:26.531Z,30
2017-06-26T10:38:27.114Z,30
2017-06-26T10:39:27.699Z,55
2017-06-26T10:40:28.285Z,30
2017-06-26T10:41:28.868Z,30
2017-06-26T10:42:29.452Z,30
2017-06-26T10:43:30.037Z,30
2017-06-26T10:44:30.620Z,30
2017-06-26T10:45:31.205Z,50
2017-06-26T10:46:31.790Z,40
2017-06-26T10:47:32.374Z,25
2017-06-26T10:48:32.974Z,35
2017-06-26T10:49:33.557Z,50
2017-06-26T10:50:34.142Z,45
2017-06-26T10:51:34.728Z,20
2017-06-26T10:52:35.310Z,25
2017-06-26T10:53:35.895Z,45
2017-06-26T10:54:36.482Z,45
2017-06-26T10:55:37.066Z,45
2017-06-26T10:56:37.648Z,40
2017-06-26T10:57:38.234Z,40
2017-06-26T10:58:38.817Z,40
2017-06-26T10:59:39.400Z,40
2017-06-26T11:00:39.987Z,45
2017-06-26T11:01:40.572Z,45
2017-06-26T11:02:41.156Z,45
2017-06-26T11:03:41.742Z,45
2017-06-26T11:04:42.344Z,45
2017-06-26T11:05:42.944Z,45
2017-06-26T11:06:43.528Z,45
2017-06-26T11:07:44.113Z,20
2017-06-26T11:08:44.697Z,20
2017-06-26T11:09:45.283Z,25
2017-06-26T11:10:45.866Z,50
2017-06-26T11:11:46.467Z,50
2017-06-26T11:12:47.068Z,50
2017-06-26T11:13:47.652Z,50
2017-06-26T11:14:48.239Z,55
2017-06-26T11:15:48.823Z,55
2017-06-26T11:16:49.409Z,55
2017-06-26T11:17:49.995Z,55
2017-06-26T11:18:50.580Z,50
2017-06-26T11:19:51.164Z,25
2017-06-26T11:20:51.749Z,30
2017-06-26T11:21:52.333Z,25
2017-06-26T11:22:52.918Z,50
2017-06-26T11:23:53.504Z,55
2017-06-26T11:24:54.088Z,50
2017-06-26T11:25:54.674Z,45
2017-06-26T11:26:55.258Z,55
2017-06-26T11:27:55.845Z,35
2017-06-26T11:28:56.429Z,60
2017-06-26T11:29:57.013Z,35
2017-06-26T11:30:57.600Z,35
2017-06-26T11:31:58.184Z,60
2017-06-26T11:32:58.769Z,60
2017-06-26T11:33:59.356Z,55
2017-06-26T11:34:59.956Z,55
2017-06-26T11:36:00.540Z,45
2017-06-26T11:37:01.125Z,30
2017-06-26T11:38:01.711Z,30
2017-06-26T11:39:02.294Z,30
2017-06-26T11:40:02.894Z,25
2017-06-26T11:41:03.479Z,25
2017-06-26T11:42:04.065Z,25
2017-06-26T11:43:04.649Z,25
2017-06-26T11:44:05.235Z,25
2017-06-26T11:45:05.818Z,25
2017-06-26T11:46:06.403Z,30
2017-06-26T11:47:06.987Z,55
2017-06-26T11:48:07.571Z,35
2017-06-26T11:49:08.155Z,35
2017-06-26T11:50:08.739Z,35
2017-06-26T11:51:09.326Z,55
2017-06-26T11:52:09.909Z,35
2017-06-26T11:53:10.495Z,40
2017-06-26T11:54:11.081Z,60
2017-06-26T11:55:11.667Z,50
2017-06-26T11:56:12.253Z,30
2017-06-26T11:57:12.836Z,30
2017-06-26T11:58:13.422Z,25
2017-06-26T11:59:14.005Z,35
2017-06-26T12:00:14.589Z,25
2017-06-26T12:01:15.174Z,30
2017-06-26T12:02:15.758Z,25
2017-06-26T12:03:16.346Z,35
2017-06-26T12:04:16.927Z,45
2017-06-26T12:05:17.511Z,25
2017-06-26T12:06:18.095Z,25
2017-06-26T12:07:18.680Z,45
2017-06-26T12:08:19.265Z,45
2017-06-26T12:09:19.850Z,50
2017-06-26T12:10:20.435Z,45
2017-06-26T12:11:21.034Z,25
2017-06-26T12:12:21.618Z,25
2017-06-26T12:13:22.201Z,25
2017-06-26T12:14:22.787Z,25
2017-06-26T12:15:23.372Z,50
2017-06-26T12:16:23.956Z,45
2017-06-26T12:17:24.543Z,45
2017-06-26T12:18:25.128Z,45
2017-06-26T12:19:25.712Z,45
2017-06-26T12:20:26.300Z,45
2017-06-26T12:21:26.885Z,45
2017-06-26T12:22:27.485Z,45
2017-06-26T12:23:28.070Z,50
2017-06-26T12:24:28.655Z,50
2017-06-26T12:25:29.242Z,50
2017-06-26T12:26:29.828Z,50
2017-06-26T12:27:30.412Z,50
2017-06-26T12:28:30.998Z,55
2017-06-26T12:29:31.582Z,55
2017-06-26T12:30:32.166Z,55
2017-06-26T12:31:32.753Z,55
2017-06-26T12:32:33.354Z,55
2017-06-26T12:33:33.938Z,60
2017-06-26T12:34:34.525Z,35
2017-06-26T12:35:35.111Z,40
2017-06-26T12:36:35.695Z,40
2017-06-26T12:37:36.281Z,45
2017-06-26T12:38:36.868Z,60
2017-06-26T12:39:37.468Z,60
2017-06-26T12:40:38.054Z,45
2017-06-26T12:41:38.640Z,60
2017-06-26T12:42:39.225Z,65
2017-06-26T12:43:39.816Z,50
2017-06-26T12:44:40.415Z,60
2017-06-26T12:45:41.001Z,60
2017-06-26T12:46:41.588Z,35
2017-06-26T12:47:42.173Z,35
2017-06-26T12:48:42.759Z,35
2017-06-26T12:49:43.342Z,35
2017-06-26T12:50:43.944Z,35
2017-06-26T12:51:44.531Z,35
2017-06-26T12:52:45.120Z,50
2017-06-26T12:53:45.706Z,55
2017-06-26T12:54:46.291Z,60
2017-06-26T12:55:46.886Z,35
2017-06-26T12:56:47.459Z,35
2017-06-26T12:57:48.060Z,55
2017-06-26T12:58:48.645Z,55
2017-06-26T12:59:49.232Z,55
2017-06-26T13:00:49.833Z,55
2017-06-26T13:01:50.419Z,55
2017-06-26T13:02:51.020Z,55
2017-06-26T13:03:51.605Z,55
2017-06-26T13:04:52.191Z,50
2017-06-26T13:05:52.778Z,55
2017-06-26T13:06:53.364Z,55
2017-06-26T13:07:53.947Z,55
2017-06-26T13:08:54.533Z,55
2017-06-26T13:09:55.118Z,60
2017-06-26T13:10:55.704Z,60
2017-06-26T13:11:56.290Z,60
2017-06-26T13:12:56.874Z,65
2017-06-26T13:13:57.460Z,65
2017-06-26T13:14:58.047Z,50
2017-06-26T13:15:58.632Z,60
2017-06-26T13:16:59.232Z,60
2017-06-26T13:17:59.818Z,35
2017-06-26T13:19:00.405Z,35
2017-06-26T13:20:00.988Z,35
2017-06-26T13:21:01.574Z,55
2017-06-26T13:22:02.161Z,55
2017-06-26T13:23:02.745Z,40
2017-06-26T13:24:03.332Z,40
2017-06-26T13:25:03.917Z,40
2017-06-26T13:26:04.505Z,40
2017-06-26T13:27:05.096Z,55
2017-06-26T13:28:05.676Z,50
2017-06-26T13:29:06.263Z,45
2017-06-26T13:30:06.848Z,35
2017-06-26T13:31:07.434Z,60
2017-06-26T13:32:08.021Z,65
2017-06-26T13:33:08.606Z,70
2017-06-26T13:34:09.192Z,55
2017-06-26T13:35:09.781Z,40
2017-06-26T13:36:10.366Z,35
2017-06-26T13:37:10.952Z,65
2017-06-26T13:38:11.539Z,65
2017-06-26T13:39:12.138Z,65
2017-06-26T13:40:12.726Z,55
2017-06-26T13:41:13.311Z,65
2017-06-26T13:42:13.896Z,65
2017-06-26T13:43:14.484Z,60
2017-06-26T13:44:15.069Z,35
2017-06-26T13:45:15.655Z,45
2017-06-26T13:46:16.242Z,35
2017-06-26T13:47:16.828Z,45
2017-06-26T13:48:17.414Z,60
2017-06-26T13:49:18.001Z,60
2017-06-26T13:50:18.587Z,55
2017-06-26T13:51:19.189Z,50
2017-06-26T13:52:19.774Z,50
2017-06-26T13:53:20.360Z,50
2017-06-26T13:54:20.947Z,60
2017-06-26T13:55:21.535Z,55
2017-06-26T13:56:22.119Z,60
2017-06-26T13:57:22.708Z,55
2017-06-26T13:58:23.310Z,60
2017-06-26T13:59:23.895Z,60
2017-06-26T14:00:24.482Z,65
2017-06-26T14:01:25.070Z,65
2017-06-26T14:02:25.657Z,65
2017-06-26T14:03:26.242Z,60
2017-06-26T14:04:26.828Z,60
2017-06-26T14:05:27.416Z,60
2017-06-26T14:06:28.001Z,60
2017-06-26T14:07:28.587Z,40
2017-06-26T14:08:29.175Z,30
2017-06-26T14:09:29.777Z,30
2017-06-26T14:10:30.363Z,45
2017-06-26T14:11:30.950Z,65
2017-06-26T14:12:31.551Z,65
2017-06-26T14:13:32.138Z,60
2017-06-26T14:14:32.723Z,60
2017-06-26T14:15:33.311Z,60
2017-06-26T14:16:33.897Z,60
2017-06-26T14:17:34.498Z,60
2017-06-26T14:18:35.086Z,60
2017-06-26T14:19:35.672Z,60
2017-06-26T14:20:36.258Z,60
2017-06-26T14:21:36.859Z,60
2017-06-26T14:22:37.446Z,60
2017-06-26T14:23:38.032Z,50
2017-06-26T14:24:38.619Z,65
2017-06-26T14:25:39.221Z,70
2017-06-26T14:26:39.809Z,70
2017-06-26T14:27:40.395Z,75
2017-06-26T14:28:40.981Z,75
2017-06-26T14:29:41.567Z,75
2017-06-26T14:30:42.154Z,75
2017-06-26T14:31:42.741Z,75
2017-06-26T14:32:43.343Z,80
2017-06-26T14:33:43.929Z,80
2017-06-26T14:34:44.517Z,85